Time;durP1;ratioP1;P1;durP2;ratioP2;P2;SDS_P1;SDS_P2;PMS_P1;PMS_P2;Temp;Humidity;BMP_temperature;BMP_pressure;BME280_temperature;BME280_humidity;BME280_pressure;Samples;Min_cycle;Max_cycle;Signal;HPM_P1;HPM_P2
2021/05/06 00:31:56;;;;;;;14.10;3.80;;;5.60;83.10;;;;;;5065698;28;20049;-48
2021/05/06 00:34:21;;;;;;;13.98;4.28;;;5.60;83.20;;;;;;5066282;28;20033;-49
2021/05/06 00:36:48;;;;;;;12.13;3.60;;;5.60;83.50;;;;;;5069672;28;20523;-51
2021/05/06 00:39:18;;;;;;;11.90;4.20;;;5.60;83.20;;;;;;5071777;28;20501;-48
2021/05/06 01:02:51;;;;;;;8.90;3.75;;;5.40;84.50;;;;;;5066553;28;20531;-49
2021/05/06 01:05:26;;;;;;;14.05;3.78;;;5.40;84.00;;;;;;5062463;28;20071;-51
2021/05/06 01:10:29;;;;;;;8.45;3.35;;;5.30;84.20;;;;;;5068471;28;20056;-48
2021/05/06 01:12:55;;;;;;;9.98;3.38;;;5.20;84.30;;;;;;5070540;28;20051;-52
2021/05/06 01:15:21;;;;;;;8.35;3.20;;;5.20;84.60;;;;;;5071418;28;20045;-49
2021/05/06 01:17:46;;;;;;;10.15;3.53;;;5.10;84.40;;;;;;5060005;28;20056;-51
2021/05/06 01:20:14;;;;;;;12.88;3.60;;;5.10;84.30;;;;;;5067435;28;20051;-51
2021/05/06 01:22:40;;;;;;;8.15;3.47;;;5.10;84.60;;;;;;5071801;28;20064;-49
2021/05/06 01:25:07;;;;;;;8.70;3.65;;;5.00;84.80;;;;;;5055390;28;20539;-48
2021/05/06 01:27:53;;;;;;;7.60;3.38;;;5.00;84.90;;;;;;5070388;28;20044;-52
2021/05/06 01:30:36;;;;;;;8.93;3.25;;;5.00;84.80;;;;;;5069757;28;20055;-50
2021/05/06 01:33:15;;;;;;;7.32;3.22;;;5.00;85.00;;;;;;5071197;28;20115;-50
2021/05/06 01:35:54;;;;;;;7.60;3.33;;;5.00;85.20;;;;;;5070336;28;20113;-50
2021/05/06 01:43:44;;;;;;;8.68;3.40;;;5.00;85.70;;;;;;5069938;28;20041;-53
2021/05/06 01:46:41;;;;;;;8.05;3.60;;;5.00;85.50;;;;;;5064093;28;20044;-51
2021/05/06 01:57:32;;;;;;;8.75;3.30;;;5.00;85.70;;;;;;5061034;28;20041;-48
2021/05/06 01:57:49;;;;;;;5.60;2.58;;;5.00;85.60;;;;;;5068016;28;20041;-52
2021/05/06 02:00:27;;;;;;;7.55;3.38;;;5.00;85.60;;;;;;5070432;28;20059;-52
2021/05/06 02:02:53;;;;;;;12.48;3.35;;;4.90;85.40;;;;;;5064648;28;20056;-52
2021/05/06 02:05:19;;;;;;;7.45;3.30;;;4.90;85.40;;;;;;5068792;28;20037;-51
2021/05/06 02:07:47;;;;;;;7.93;3.58;;;4.80;85.50;;;;;;5066411;28;20043;-52
2021/05/06 02:10:16;;;;;;;7.85;3.20;;;4.80;85.70;;;;;;5068522;28;20036;-52
2021/05/06 02:12:42;;;;;;;7.10;3.25;;;4.80;85.70;;;;;;5070100;28;20036;-49
2021/05/06 02:15:13;;;;;;;7.95;3.45;;;4.80;85.60;;;;;;5068310;28;20032;-51
2021/05/06 02:17:41;;;;;;;7.65;3.33;;;4.80;85.80;;;;;;5068082;28;20108;-48
2021/05/06 02:20:07;;;;;;;8.13;3.22;;;4.70;85.70;;;;;;5068109;28;20041;-52
2021/05/06 02:22:34;;;;;;;8.00;3.38;;;4.70;85.70;;;;;;5070540;28;20412;-52
2021/05/06 02:24:59;;;;;;;6.97;3.42;;;4.70;85.90;;;;;;5070544;28;20044;-50
2021/05/06 02:27:26;;;;;;;8.05;3.03;;;4.60;85.70;;;;;;5069457;28;20373;-52
2021/05/06 02:29:51;;;;;;;6.20;3.17;;;4.50;86.00;;;;;;5069586;28;20040;-50
2021/05/06 02:32:17;;;;;;;6.05;3.20;;;4.50;86.10;;;;;;5066225;28;20416;-51
2021/05/06 02:34:43;;;;;;;7.45;3.53;;;4.50;86.60;;;;;;5070357;28;20070;-49
2021/05/06 02:37:09;;;;;;;7.30;3.00;;;4.40;86.70;;;;;;5070143;28;20090;-50
2021/05/06 02:39:35;;;;;;;9.55;3.65;;;4.40;86.80;;;;;;5069526;28;20098;-51
2021/05/06 02:42:01;;;;;;;8.30;3.20;;;4.40;87.20;;;;;;5062259;28;20485;-51
2021/05/06 02:44:26;;;;;;;6.07;3.35;;;4.40;87.00;;;;;;5065828;28;20051;-50
2021/05/06 02:46:52;;;;;;;8.73;3.70;;;4.40;87.20;;;;;;5069297;28;20351;-53
2021/05/06 02:49:20;;;;;;;5.28;3.20;;;4.40;87.20;;;;;;5067937;28;20090;-49
2021/05/06 02:51:50;;;;;;;8.02;3.20;;;4.40;87.10;;;;;;5070721;28;20037;-51
2021/05/06 02:54:16;;;;;;;4.63;2.90;;;4.30;87.00;;;;;;5072660;28;20040;-51
2021/05/06 02:56:53;;;;;;;5.93;3.10;;;4.20;86.90;;;;;;5062690;28;20459;-50
2021/05/06 03:04:42;;;;;;;6.68;2.92;;;4.20;87.60;;;;;;5065290;28;20059;-51
2021/05/06 03:07:10;;;;;;;6.55;3.28;;;4.10;87.70;;;;;;5073195;28;20519;-49
2021/05/06 03:22:49;;;;;;;7.32;3.58;;;4.00;88.50;;;;;;5071453;28;20059;-51
2021/05/06 03:25:17;;;;;;;6.97;3.72;;;3.90;88.50;;;;;;5069905;28;20044;-51
2021/05/06 03:27:49;;;;;;;7.90;3.75;;;3.90;88.60;;;;;;5073288;28;20036;-50
2021/05/06 03:35:16;;;;;;;6.20;3.75;;;3.90;89.10;;;;;;5073777;28;20512;-51
2021/05/06 04:03:18;;;;;;;6.70;3.50;;;3.70;89.30;;;;;;5071211;28;20049;-50
2021/05/06 04:13:24;;;;;;;8.82;4.05;;;3.60;89.60;;;;;;5070403;28;20082;-50
2021/05/06 04:18:36;;;;;;;7.93;3.83;;;3.60;89.50;;;;;;5069618;28;20553;-51
2021/05/06 04:21:31;;;;;;;7.20;4.55;;;3.60;89.60;;;;;;5064479;28;20064;-52
2021/05/06 04:29:53;;;;;;;8.35;4.60;;;3.70;90.40;;;;;;5062045;28;20122;-49
2021/05/06 04:37:35;;;;;;;7.43;4.20;;;3.90;90.70;;;;;;5071301;28;20043;-49
2021/05/06 04:40:08;;;;;;;7.50;4.15;;;3.90;90.70;;;;;;5072307;28;20135;-49
2021/05/06 04:53:29;;;;;;;7.50;4.05;;;4.10;90.80;;;;;;5040406;28;20497;-50
2021/05/06 05:06:39;;;;;;;7.67;3.87;;;4.10;90.80;;;;;;5060136;28;20037;-52
2021/05/06 05:09:36;;;;;;;8.85;4.40;;;4.10;90.80;;;;;;5068576;28;20295;-51
2021/05/06 05:15:07;;;;;;;8.80;3.72;;;4.10;90.90;;;;;;5061698;28;20047;-51
2021/05/06 05:25:37;;;;;;;9.15;4.72;;;4.80;91.00;;;;;;5073218;28;20508;-51
2021/05/06 05:28:05;;;;;;;8.65;4.65;;;5.10;91.30;;;;;;5068994;28;20045;-49
2021/05/06 05:30:34;;;;;;;7.47;4.50;;;5.40;91.00;;;;;;5042871;28;20044;-48
2021/05/06 05:33:00;;;;;;;9.23;4.53;;;5.70;90.50;;;;;;5065648;28;20500;-51
2021/05/06 05:38:07;;;;;;;6.38;4.45;;;6.30;88.50;;;;;;5071016;28;20041;-50
2021/05/06 05:40:51;;;;;;;6.20;3.85;;;6.40;87.80;;;;;;5070736;28;20123;-53
2021/05/06 05:43:31;;;;;;;7.40;3.90;;;6.20;87.00;;;;;;5070028;28;20076;-49
2021/05/06 05:56:41;;;;;;;5.00;3.15;;;8.20;81.20;;;;;;5074501;28;20040;-49
2021/05/06 05:59:07;;;;;;;7.00;3.30;;;8.80;78.80;;;;;;5074616;28;20642;-48
2021/05/06 06:01:34;;;;;;;6.03;3.47;;;8.70;77.30;;;;;;5073357;28;20047;-50
2021/05/06 06:04:00;;;;;;;5.80;3.42;;;8.40;77.10;;;;;;5073895;28;20052;-52
2021/05/06 06:06:26;;;;;;;7.35;3.50;;;8.00;78.20;;;;;;5067465;28;20057;-52
2021/05/06 06:08:51;;;;;;;8.93;4.10;;;7.70;79.50;;;;;;5060688;28;20075;-51
2021/05/06 06:11:19;;;;;;;8.27;3.70;;;7.80;80.10;;;;;;5061343;28;20036;-52
2021/05/06 06:13:47;;;;;;;9.32;4.30;;;8.30;79.20;;;;;;5061653;28;20033;-48
2021/05/06 06:18:49;;;;;;;6.20;3.42;;;9.00;77.60;;;;;;5055499;28;20071;-48
2021/05/06 06:21:21;;;;;;;6.28;3.50;;;8.90;77.50;;;;;;5064763;28;20082;-52
2021/05/06 06:23:47;;;;;;;6.43;3.83;;;8.70;77.00;;;;;;5059077;28;20094;-49
2021/05/06 06:26:13;;;;;;;8.95;3.78;;;8.40;77.60;;;;;;5059064;28;20326;-50
2021/05/06 06:28:45;;;;;;;6.10;3.90;;;8.00;77.20;;;;;;5055694;28;20141;-51
2021/05/06 06:33:48;;;;;;;8.18;4.50;;;7.80;79.60;;;;;;5057651;28;20409;-47
2021/05/06 06:36:17;;;;;;;6.38;4.28;;;8.00;80.60;;;;;;5053322;28;20053;-50
2021/05/06 06:38:43;;;;;;;9.07;5.20;;;8.10;81.00;;;;;;5053786;28;20044;-48
2021/05/06 06:41:10;;;;;;;10.05;4.95;;;8.30;80.90;;;;;;5054563;28;20036;-47
2021/05/06 06:43:36;;;;;;;9.43;5.15;;;8.40;80.10;;;;;;5065448;28;20124;-51
2021/05/06 06:46:04;;;;;;;9.18;5.65;;;8.40;80.30;;;;;;5070047;28;20155;-48
2021/05/06 06:48:30;;;;;;;7.20;5.53;;;8.50;80.10;;;;;;5069465;28;20047;-50
2021/05/06 06:50:55;;;;;;;8.15;5.80;;;8.60;80.30;;;;;;5064438;28;20036;-48
2021/05/06 06:53:21;;;;;;;8.25;5.82;;;8.60;79.60;;;;;;5068249;28;20028;-51
2021/05/06 06:55:48;;;;;;;8.73;6.43;;;8.70;79.30;;;;;;5064464;28;20440;-48
2021/05/06 06:58:16;;;;;;;9.70;6.88;;;8.70;78.80;;;;;;5056223;28;20124;-47
2021/05/06 07:00:44;;;;;;;11.43;7.13;;;8.70;79.30;;;;;;5054719;28;20452;-48
2021/05/06 07:03:11;;;;;;;11.10;8.40;;;8.70;79.50;;;;;;5060605;28;20060;-49
2021/05/06 07:05:37;;;;;;;12.77;9.10;;;8.80;79.90;;;;;;5065103;28;20045;-49
2021/05/06 07:08:25;;;;;;;13.70;9.90;;;8.90;80.40;;;;;;5069231;28;20039;-49
2021/05/06 07:10:54;;;;;;;11.52;8.52;;;9.10;79.90;;;;;;5060033;28;20489;-48
2021/05/06 07:13:21;;;;;;;11.98;9.13;;;9.10;78.50;;;;;;5057764;28;20079;-51
2021/05/06 07:15:49;;;;;;;12.43;9.23;;;9.20;79.40;;;;;;5052004;28;20048;-49
2021/05/06 07:18:16;;;;;;;13.13;10.23;;;9.30;79.50;;;;;;5052356;28;20122;-49
2021/05/06 07:20:44;;;;;;;12.40;8.50;;;9.30;78.80;;;;;;5049392;28;20071;-49
2021/05/06 07:23:15;;;;;;;13.40;8.88;;;9.20;77.50;;;;;;5064211;28;20586;-48
2021/05/06 07:25:41;;;;;;;13.97;8.30;;;9.10;78.40;;;;;;5059549;28;20083;-52
2021/05/06 07:28:43;;;;;;;10.55;7.13;;;9.00;77.80;;;;;;5067409;28;20045;-54
2021/05/06 07:31:10;;;;;;;7.40;4.05;;;8.90;76.30;;;;;;5059775;28;20100;-51
2021/05/06 07:33:36;;;;;;;7.38;4.03;;;8.70;74.50;;;;;;5084972;28;20148;-51
2021/05/06 07:36:06;;;;;;;9.35;4.95;;;8.50;74.30;;;;;;5076079;28;20440;-49
2021/05/06 07:38:32;;;;;;;8.32;4.85;;;8.30;74.50;;;;;;5075225;28;20043;-49
2021/05/06 07:41:00;;;;;;;7.50;5.20;;;8.20;76.10;;;;;;5063847;28;20402;-50
2021/05/06 07:43:29;;;;;;;7.22;4.93;;;8.10;78.30;;;;;;5060841;28;20041;-52
2021/05/06 07:45:55;;;;;;;6.25;4.05;;;8.00;78.00;;;;;;5068589;28;20041;-49
2021/05/06 07:48:20;;;;;;;5.75;4.13;;;8.00;78.40;;;;;;5066628;28;20063;-49
2021/05/06 07:50:47;;;;;;;6.28;4.32;;;8.10;78.80;;;;;;5066681;28;20036;-50
2021/05/06 07:53:22;;;;;;;6.85;3.83;;;8.20;78.80;;;;;;5048709;28;20048;-50
2021/05/06 07:55:48;;;;;;;5.63;3.85;;;8.50;78.90;;;;;;5067017;28;20082;-49
2021/05/06 07:58:14;;;;;;;4.97;3.63;;;8.60;76.60;;;;;;5073332;28;20495;-49
2021/05/06 08:00:42;;;;;;;7.95;3.75;;;8.50;76.00;;;;;;5073025;28;20492;-49
2021/05/06 08:03:08;;;;;;;6.13;3.53;;;8.50;76.40;;;;;;5074280;28;20158;-51
2021/05/06 08:05:35;;;;;;;5.50;3.30;;;8.40;76.40;;;;;;5074554;28;20045;-49
2021/05/06 08:08:01;;;;;;;6.95;4.40;;;8.30;75.70;;;;;;5073099;28;20408;-49
2021/05/06 08:10:27;;;;;;;7.25;4.65;;;8.40;77.10;;;;;;5074453;28;20451;-51
2021/05/06 08:12:56;;;;;;;7.60;4.95;;;8.40;77.60;;;;;;5056154;28;20036;-49
2021/05/06 08:15:22;;;;;;;8.45;5.07;;;8.40;77.20;;;;;;5074215;28;20040;-49
2021/05/06 08:17:50;;;;;;;9.73;5.68;;;8.50;78.30;;;;;;5073391;28;20032;-50
2021/05/06 08:20:18;;;;;;;10.05;5.13;;;8.80;78.10;;;;;;5073940;28;20493;-50
2021/05/06 08:22:44;;;;;;;10.13;5.90;;;9.10;77.80;;;;;;5066790;28;20037;-49
2021/05/06 08:25:12;;;;;;;9.45;6.07;;;9.30;77.50;;;;;;5067365;28;20046;-50
2021/05/06 08:27:39;;;;;;;10.52;5.70;;;9.50;77.90;;;;;;5066893;28;20496;-51
2021/05/06 08:30:07;;;;;;;12.90;5.30;;;9.60;76.80;;;;;;5058323;28;20420;-49
2021/05/06 08:32:37;;;;;;;10.45;6.55;;;9.70;75.70;;;;;;5065225;28;20067;-50
2021/05/06 08:35:06;;;;;;;10.25;6.72;;;9.90;75.00;;;;;;5036795;28;20037;-52
2021/05/06 08:37:32;;;;;;;10.00;7.18;;;10.00;74.60;;;;;;5068395;28;20437;-49
2021/05/06 08:39:57;;;;;;;9.10;7.25;;;10.00;73.10;;;;;;5053861;28;20037;-51
2021/05/06 08:42:25;;;;;;;9.20;7.60;;;10.10;72.40;;;;;;5070948;28;20047;-49
2021/05/06 08:44:51;;;;;;;10.50;8.18;;;10.20;72.10;;;;;;5057336;28;20382;-50
2021/05/06 08:47:20;;;;;;;11.05;8.25;;;10.10;71.40;;;;;;5073161;28;20132;-49
2021/05/06 08:49:48;;;;;;;13.23;8.60;;;10.10;71.30;;;;;;5072834;28;20290;-48
2021/05/06 08:52:19;;;;;;;11.98;8.90;;;10.00;72.60;;;;;;5072940;28;20036;-49
2021/05/06 08:54:47;;;;;;;12.05;7.97;;;10.10;72.90;;;;;;5064422;28;20033;-53
2021/05/06 08:57:13;;;;;;;13.25;9.05;;;10.20;73.20;;;;;;5070204;28;20067;-50
2021/05/06 08:59:39;;;;;;;14.02;9.93;;;10.20;72.90;;;;;;5073590;28;20044;-49
2021/05/06 09:02:06;;;;;;;13.52;10.18;;;10.30;73.20;;;;;;5068143;28;20049;-49
2021/05/06 09:04:33;;;;;;;11.77;9.30;;;10.40;73.20;;;;;;5062990;28;20048;-50
2021/05/06 09:07:01;;;;;;;13.57;9.23;;;10.70;72.00;;;;;;5055209;28;20049;-49
2021/05/06 09:09:29;;;;;;;14.52;10.23;;;10.80;70.60;;;;;;5071422;28;20420;-50
2021/05/06 09:11:59;;;;;;;14.75;12.13;;;10.80;71.10;;;;;;5072396;28;20493;-51
2021/05/06 09:14:47;;;;;;;11.20;9.30;;;11.00;73.10;;;;;;5067812;28;20040;-50
2021/05/06 09:17:24;;;;;;;15.00;10.60;;;11.10;69.80;;;;;;5082199;28;20084;-49
2021/05/06 09:20:10;;;;;;;15.70;10.75;;;11.10;69.10;;;;;;5065334;28;20047;-49
2021/05/06 09:22:38;;;;;;;13.30;9.52;;;10.90;68.00;;;;;;5055097;28;20533;-48
2021/05/06 09:25:32;;;;;;;11.40;9.10;;;10.70;68.50;;;;;;5073088;28;20068;-49
2021/05/06 09:28:04;;;;;;;16.35;10.25;;;10.50;68.40;;;;;;5052921;28;20037;-47
2021/05/06 09:30:32;;;;;;;15.05;10.02;;;10.50;70.10;;;;;;5071038;28;20129;-51
2021/05/06 09:33:17;;;;;;;13.35;10.68;;;10.60;70.00;;;;;;5071671;28;20044;-50
2021/05/06 09:35:48;;;;;;;13.95;10.18;;;10.80;70.40;;;;;;5072021;28;20059;-48
2021/05/06 09:38:26;;;;;;;13.18;10.50;;;11.00;69.90;;;;;;5071455;28;20051;-48
2021/05/06 09:40:53;;;;;;;15.77;10.98;;;11.00;67.70;;;;;;5071627;28;20041;-48
2021/05/06 09:43:42;;;;;;;13.95;10.75;;;10.90;68.30;;;;;;5055535;28;20060;-48
2021/05/06 09:46:25;;;;;;;16.10;12.10;;;11.00;68.60;;;;;;5050342;28;20080;-49
2021/05/06 09:49:14;;;;;;;;;;;11.20;68.30;;;;;;5053294;28;20044;-49
2021/05/06 09:51:52;;;;;;;15.15;9.93;;;11.30;65.70;;;;;;5063254;28;19934;-48
2021/05/06 09:54:23;;;;;;;11.85;9.30;;;11.40;67.30;;;;;;5072590;28;20040;-47
2021/05/06 09:57:03;;;;;;;15.02;9.90;;;11.40;64.10;;;;;;5072114;28;20044;-51
2021/05/06 09:59:39;;;;;;;13.90;10.48;;;11.30;64.20;;;;;;5072332;28;20064;-48
2021/05/06 10:02:15;;;;;;;14.65;10.32;;;11.40;64.10;;;;;;5071646;28;20094;-51
2021/05/06 10:04:44;;;;;;;15.75;10.18;;;11.30;63.70;;;;;;5071237;28;20120;-47
2021/05/06 10:07:17;;;;;;;14.32;11.85;;;11.00;64.80;;;;;;5071894;28;20040;-48
2021/05/06 10:09:49;;;;;;;15.30;11.95;;;10.80;66.60;;;;;;5072503;28;20040;-48
2021/05/06 10:12:20;;;;;;;14.50;11.93;;;10.60;68.30;;;;;;5072966;28;20036;-48
2021/05/06 10:14:48;;;;;;;16.63;13.45;;;10.50;69.50;;;;;;5073971;28;20463;-50
2021/05/06 10:17:15;;;;;;;14.98;12.25;;;10.60;70.70;;;;;;5074661;28;20036;-48
2021/05/06 10:19:42;;;;;;;15.55;11.70;;;10.60;70.80;;;;;;5075621;28;20412;-48
2021/05/06 10:22:10;;;;;;;14.85;11.43;;;10.60;69.90;;;;;;5071902;28;20066;-49
2021/05/06 10:24:45;;;;;;;14.20;11.73;;;10.90;67.30;;;;;;5061949;28;20037;-49
2021/05/06 10:27:13;;;;;;;13.52;9.55;;;11.00;67.80;;;;;;5070888;28;20040;-52
2021/05/06 10:29:40;;;;;;;14.32;10.80;;;11.20;65.20;;;;;;5071082;28;20093;-49
2021/05/06 10:32:09;;;;;;;17.88;11.20;;;11.30;65.20;;;;;;5087329;28;20110;-49
2021/05/06 10:34:35;;;;;;;14.85;11.30;;;11.30;65.60;;;;;;5066335;28;20032;-47
2021/05/06 10:37:02;;;;;;;14.05;10.40;;;11.30;68.40;;;;;;5070548;28;20055;-47
2021/05/06 10:39:37;;;;;;;13.77;10.68;;;11.30;68.80;;;;;;5067511;28;20032;-48
2021/05/06 10:42:28;;;;;;;14.07;10.27;;;11.50;68.70;;;;;;5071025;28;20036;-50
2021/05/06 10:44:58;;;;;;;10.63;8.13;;;11.90;67.40;;;;;;5057986;28;20048;-48
2021/05/06 10:47:50;;;;;;;13.40;8.75;;;12.10;67.50;;;;;;5071171;28;20057;-48
2021/05/06 10:50:21;;;;;;;10.35;7.57;;;12.20;65.30;;;;;;5066200;28;20047;-49
2021/05/06 10:52:56;;;;;;;10.07;7.40;;;12.30;64.90;;;;;;5052455;28;20029;-50
2021/05/06 10:55:46;;;;;;;11.13;7.65;;;12.20;64.40;;;;;;5068533;28;20060;-50
2021/05/06 10:58:27;;;;;;;10.43;7.40;;;12.20;63.70;;;;;;5062570;28;20043;-51
2021/05/06 11:01:15;;;;;;;11.18;7.75;;;12.20;64.40;;;;;;5060544;28;20033;-51
2021/05/06 11:03:41;;;;;;;10.70;7.97;;;12.30;64.50;;;;;;5062658;28;20071;-50
2021/05/06 11:06:26;;;;;;;11.23;7.80;;;12.20;64.10;;;;;;5057147;28;20041;-49
2021/05/06 11:08:52;;;;;;;9.85;6.80;;;12.30;64.30;;;;;;5065128;28;20064;-52
2021/05/06 11:11:19;;;;;;;9.10;6.20;;;12.50;62.60;;;;;;5061893;28;20036;-49
2021/05/06 11:14:06;;;;;;;8.35;6.57;;;12.60;61.80;;;;;;5062838;28;20498;-52
2021/05/06 11:16:33;;;;;;;7.38;5.63;;;12.70;61.20;;;;;;5066147;28;20567;-50
2021/05/06 11:19:00;;;;;;;10.05;6.50;;;12.70;60.50;;;;;;5060214;28;20068;-50
2021/05/06 11:21:33;;;;;;;8.75;6.65;;;12.70;60.50;;;;;;5058770;28;20048;-49
2021/05/06 11:24:18;;;;;;;9.82;6.40;;;12.70;61.30;;;;;;5061991;28;20118;-53
2021/05/06 11:27:09;;;;;;;11.25;7.55;;;12.70;59.20;;;;;;5077956;28;20094;-50
2021/05/06 11:29:37;;;;;;;8.57;6.78;;;12.80;60.60;;;;;;5072679;28;20481;-51
2021/05/06 11:32:03;;;;;;;10.20;6.20;;;12.90;60.20;;;;;;5070892;28;20067;-50
2021/05/06 11:34:36;;;;;;;12.43;6.82;;;12.90;59.70;;;;;;5074022;28;20119;-51
2021/05/06 11:37:16;;;;;;;9.43;6.72;;;12.90;59.10;;;;;;5068735;28;20040;-49
2021/05/06 11:39:47;;;;;;;9.07;6.50;;;12.90;59.40;;;;;;5064495;28;20033;-51
2021/05/06 11:42:13;;;;;;;9.85;6.70;;;12.90;59.00;;;;;;5062878;28;20040;-50
2021/05/06 11:44:39;;;;;;;11.45;6.40;;;12.70;59.00;;;;;;5063903;28;20162;-52
2021/05/06 11:47:04;;;;;;;8.10;5.68;;;12.80;59.40;;;;;;5066901;28;20481;-50
2021/05/06 11:49:30;;;;;;;10.05;5.63;;;12.70;57.30;;;;;;5061248;28;20040;-49
2021/05/06 11:51:55;;;;;;;9.57;6.25;;;12.60;57.70;;;;;;5067097;28;20044;-51
2021/05/06 11:54:25;;;;;;;7.55;5.70;;;12.70;58.70;;;;;;5066503;28;20032;-51
2021/05/06 11:56:53;;;;;;;6.47;5.15;;;12.70;58.20;;;;;;5066468;28;20032;-51
2021/05/06 11:59:28;;;;;;;6.20;4.70;;;12.70;57.30;;;;;;5061542;28;20036;-50
2021/05/06 12:01:54;;;;;;;7.22;4.68;;;12.70;57.30;;;;;;5059796;28;20052;-50
2021/05/06 12:04:32;;;;;;;6.82;4.25;;;12.70;56.40;;;;;;5059026;28;20064;-51
2021/05/06 12:06:58;;;;;;;7.30;5.15;;;12.60;54.20;;;;;;5063733;28;20123;-50
2021/05/06 12:09:27;;;;;;;6.35;4.35;;;12.50;53.80;;;;;;5067686;28;20068;-50
2021/05/06 12:11:54;;;;;;;6.10;4.63;;;12.40;53.90;;;;;;5059405;28;20048;-50
2021/05/06 12:14:30;;;;;;;6.80;4.45;;;12.30;54.10;;;;;;5057977;28;20041;-51
2021/05/06 12:16:56;;;;;;;7.50;4.32;;;12.20;55.40;;;;;;5054246;28;20127;-51
2021/05/06 12:19:22;;;;;;;7.07;4.55;;;12.30;56.00;;;;;;5065314;28;20131;-50
2021/05/06 12:21:56;;;;;;;7.45;5.15;;;12.30;55.90;;;;;;5055052;28;20036;-51
2021/05/06 12:24:31;;;;;;;8.38;4.82;;;12.40;56.10;;;;;;5067978;28;20085;-52
2021/05/06 12:26:58;;;;;;;7.05;5.13;;;12.50;56.90;;;;;;5060061;28;20045;-51
2021/05/06 12:29:27;;;;;;;7.75;5.32;;;12.50;55.80;;;;;;5059809;28;20043;-53
2021/05/06 12:31:53;;;;;;;7.88;5.30;;;12.50;57.10;;;;;;5060685;28;20028;-53
2021/05/06 12:34:24;;;;;;;7.10;4.47;;;12.50;57.00;;;;;;5064581;28;20041;-50
2021/05/06 12:36:58;;;;;;;9.43;4.90;;;12.60;57.10;;;;;;5061603;28;20055;-54
2021/05/06 12:39:24;;;;;;;8.43;4.50;;;12.60;56.60;;;;;;5057962;28;20153;-50
2021/05/06 12:41:57;;;;;;;7.45;4.72;;;12.70;56.50;;;;;;5063831;28;20040;-49
2021/05/06 12:44:42;;;;;;;8.25;4.68;;;12.70;55.30;;;;;;5055311;28;20036;-48
2021/05/06 12:47:20;;;;;;;6.10;4.07;;;12.70;55.50;;;;;;5063247;28;20099;-51
2021/05/06 12:49:48;;;;;;;5.05;3.78;;;12.80;53.40;;;;;;5058414;28;20053;-51
2021/05/06 12:52:37;;;;;;;5.88;4.00;;;12.70;54.20;;;;;;5061707;28;20041;-53
2021/05/06 12:55:21;;;;;;;5.28;3.65;;;12.80;52.20;;;;;;5055056;28;20032;-51
2021/05/06 12:58:15;;;;;;;6.20;4.20;;;12.80;54.00;;;;;;5052168;28;20425;-48
2021/05/06 13:01:00;;;;;;;8.07;5.38;;;12.80;55.20;;;;;;5057941;28;20037;-49
2021/05/06 13:03:35;;;;;;;8.05;5.35;;;12.90;57.10;;;;;;5053391;28;20045;-50
2021/05/06 13:06:12;;;;;;;7.57;5.30;;;12.80;55.30;;;;;;5059956;28;20049;-50
2021/05/06 13:08:43;;;;;;;7.93;5.20;;;12.60;57.10;;;;;;5058850;28;20421;-49
2021/05/06 13:11:11;;;;;;;7.68;5.60;;;12.40;56.80;;;;;;5054573;28;20041;-48
2021/05/06 13:13:41;;;;;;;7.25;5.50;;;12.30;57.30;;;;;;5061549;28;20094;-51
2021/05/06 13:16:09;;;;;;;7.25;5.60;;;12.00;57.80;;;;;;5068074;28;20412;-51
2021/05/06 13:18:36;;;;;;;6.88;5.25;;;11.90;59.20;;;;;;5067541;28;20064;-50
2021/05/06 13:21:04;;;;;;;6.40;5.28;;;11.70;60.00;;;;;;5068132;28;20542;-50
2021/05/06 13:23:32;;;;;;;6.32;5.20;;;11.60;59.00;;;;;;5068539;28;20037;-51
2021/05/06 13:26:00;;;;;;;7.30;5.03;;;11.60;59.10;;;;;;5070055;28;20060;-51
2021/05/06 13:28:32;;;;;;;9.27;5.13;;;11.40;58.70;;;;;;5063711;28;20048;-52
2021/05/06 13:31:16;;;;;;;7.68;5.82;;;11.40;60.50;;;;;;5059210;28;20041;-48
2021/05/06 13:33:41;;;;;;;8.00;5.72;;;11.30;61.40;;;;;;5082942;28;20033;-48
2021/05/06 13:36:11;;;;;;;8.05;6.07;;;11.30;62.10;;;;;;5056038;28;20628;-51
2021/05/06 13:38:59;;;;;;;9.27;6.65;;;11.30;62.70;;;;;;5056146;28;20056;-49
2021/05/06 13:41:33;;;;;;;9.57;6.47;;;11.30;61.30;;;;;;5056056;28;20052;-51
2021/05/06 13:44:01;;;;;;;8.55;7.10;;;11.20;62.60;;;;;;5053394;28;20040;-48
2021/05/06 13:46:27;;;;;;;9.23;6.82;;;11.20;62.20;;;;;;5062612;28;20064;-51
2021/05/06 13:48:54;;;;;;;8.40;7.28;;;11.10;64.20;;;;;;5069891;28;20040;-48
2021/05/06 13:51:21;;;;;;;7.68;6.20;;;10.90;64.40;;;;;;5061137;28;20086;-55
2021/05/06 13:53:48;;;;;;;9.00;7.20;;;10.80;65.80;;;;;;5057959;28;20036;-52
2021/05/06 13:56:14;;;;;;;8.30;6.57;;;10.80;66.00;;;;;;5060040;28;20044;-48
2021/05/06 13:58:41;;;;;;;8.98;7.35;;;10.80;66.60;;;;;;5059194;28;20086;-51
2021/05/06 14:01:09;;;;;;;10.57;7.47;;;10.70;67.60;;;;;;5061313;28;20049;-50
2021/05/06 14:03:35;;;;;;;10.55;8.18;;;10.60;68.80;;;;;;5069373;28;20042;-48
2021/05/06 14:06:03;;;;;;;8.70;7.03;;;10.60;70.10;;;;;;5060719;28;20059;-48
2021/05/06 14:08:30;;;;;;;9.68;6.90;;;10.60;70.70;;;;;;5056581;28;20051;-48
2021/05/06 14:10:57;;;;;;;6.40;5.20;;;10.70;70.80;;;;;;5055480;28;20068;-51
2021/05/06 14:13:24;;;;;;;7.57;5.82;;;10.70;70.10;;;;;;5052081;28;20535;-54
2021/05/06 14:15:50;;;;;;;9.73;5.70;;;10.80;68.90;;;;;;5060069;28;20040;-51
2021/05/06 14:18:16;;;;;;;7.25;5.13;;;10.80;68.20;;;;;;5062839;28;20040;-54
2021/05/06 14:20:42;;;;;;;7.43;4.72;;;10.90;68.50;;;;;;5069170;28;20051;-48
2021/05/06 14:23:10;;;;;;;6.68;4.70;;;11.00;67.70;;;;;;5064985;28;20044;-49
2021/05/06 14:25:36;;;;;;;9.57;5.65;;;11.10;67.10;;;;;;5061323;28;20040;-49
2021/05/06 14:28:06;;;;;;;7.97;5.65;;;11.20;66.80;;;;;;5064820;28;20489;-52
2021/05/06 14:30:33;;;;;;;5.70;3.70;;;11.40;66.40;;;;;;5056005;28;20048;-50
2021/05/06 14:32:59;;;;;;;5.55;3.20;;;11.40;64.70;;;;;;5062992;28;20064;-49
2021/05/06 14:35:24;;;;;;;7.50;2.72;;;11.40;62.20;;;;;;5053166;28;20064;-48
2021/05/06 14:37:50;;;;;;;2.75;2.22;;;11.40;61.50;;;;;;5055002;28;20472;-54
2021/05/06 14:40:16;;;;;;;3.42;2.10;;;11.30;61.00;;;;;;5053921;28;20106;-48
2021/05/06 14:42:42;;;;;;;4.25;2.60;;;11.30;60.70;;;;;;5064155;28;20049;-50
2021/05/06 14:45:10;;;;;;;4.57;2.95;;;11.20;61.00;;;;;;5055317;28;20072;-53
2021/05/06 14:47:39;;;;;;;3.67;2.50;;;11.20;62.10;;;;;;5062310;28;20045;-54
2021/05/06 14:50:13;;;;;;;4.68;2.67;;;11.30;61.60;;;;;;5065742;28;20048;-48
2021/05/06 14:52:39;;;;;;;3.95;2.30;;;11.20;61.30;;;;;;5060756;28;20415;-51
2021/05/06 14:55:07;;;;;;;3.20;2.20;;;11.20;61.40;;;;;;5068815;28;20044;-48
2021/05/06 14:57:33;;;;;;;3.40;2.30;;;11.10;61.10;;;;;;5063987;28;20028;-48
2021/05/06 14:59:59;;;;;;;4.63;3.00;;;11.10;61.80;;;;;;5059130;28;20124;-52
2021/05/06 15:02:25;;;;;;;6.82;2.45;;;11.10;61.20;;;;;;5063000;28;20500;-52
2021/05/06 15:04:50;;;;;;;4.57;2.80;;;11.00;61.80;;;;;;5056755;28;20091;-52
2021/05/06 15:07:16;;;;;;;4.10;2.80;;;11.00;61.80;;;;;;5058613;28;20072;-51
2021/05/06 15:09:42;;;;;;;5.07;3.35;;;11.00;61.10;;;;;;5060423;28;20139;-52
2021/05/06 15:12:08;;;;;;;5.13;3.28;;;11.00;62.00;;;;;;5058927;28;20127;-48
2021/05/06 15:14:34;;;;;;;5.53;3.78;;;11.00;62.90;;;;;;5060332;28;20397;-52
2021/05/06 15:16:59;;;;;;;6.28;4.30;;;11.10;62.80;;;;;;5061850;28;20040;-53
2021/05/06 15:19:25;;;;;;;6.28;3.88;;;11.10;61.90;;;;;;5066157;28;20044;-50
2021/05/06 15:21:51;;;;;;;7.40;4.30;;;11.10;62.20;;;;;;5059213;28;20029;-48
2021/05/06 15:24:16;;;;;;;7.18;4.70;;;11.10;60.40;;;;;;5061917;28;20498;-50
2021/05/06 15:26:42;;;;;;;6.25;4.05;;;11.00;60.30;;;;;;5062084;28;20390;-48
2021/05/06 15:29:08;;;;;;;5.63;4.15;;;11.00;60.50;;;;;;5065871;28;20041;-49
2021/05/06 15:31:36;;;;;;;7.38;4.88;;;11.00;61.80;;;;;;5060723;28;20040;-51
2021/05/06 15:34:03;;;;;;;12.25;5.72;;;11.00;61.10;;;;;;5066714;28;20044;-51
2021/05/06 15:36:30;;;;;;;5.90;4.50;;;10.90;60.60;;;;;;5064260;28;20121;-54
2021/05/06 15:38:59;;;;;;;7.32;4.70;;;10.90;60.60;;;;;;5063546;28;20040;-48
2021/05/06 15:41:26;;;;;;;6.55;4.65;;;11.00;61.10;;;;;;5064349;28;20044;-53
2021/05/06 15:43:52;;;;;;;5.60;4.45;;;11.00;61.60;;;;;;5061235;28;20043;-52
2021/05/06 15:46:18;;;;;;;6.15;4.10;;;11.00;62.00;;;;;;5062799;28;20044;-51
2021/05/06 15:48:44;;;;;;;7.10;4.63;;;11.10;61.30;;;;;;5063264;28;20036;-49
2021/05/06 15:51:09;;;;;;;6.15;4.78;;;11.10;61.50;;;;;;5063066;28;20039;-52
2021/05/06 15:53:35;;;;;;;8.05;5.28;;;11.10;61.60;;;;;;5057870;28;20041;-51
2021/05/06 15:56:01;;;;;;;5.70;4.45;;;11.00;60.50;;;;;;5070364;28;20663;-49
2021/05/06 15:58:28;;;;;;;5.55;4.20;;;11.10;61.10;;;;;;5068614;28;20048;-50
2021/05/06 16:00:57;;;;;;;6.30;4.40;;;11.10;60.60;;;;;;5070551;28;20464;-52
2021/05/06 16:03:24;;;;;;;5.43;4.07;;;11.10;61.80;;;;;;5065368;28;20036;-54
2021/05/06 16:05:53;;;;;;;5.20;3.75;;;11.10;62.00;;;;;;5070586;28;20079;-51
2021/05/06 16:08:19;;;;;;;5.07;3.97;;;11.10;60.20;;;;;;5068209;28;20036;-51
2021/05/06 16:10:46;;;;;;;6.30;4.60;;;11.10;60.10;;;;;;5068890;28;20464;-51